Time;durP1;ratioP1;P1;durP2;ratioP2;P2;SDS_P1;SDS_P2;PMS_P1;PMS_P2;Temp;Humidity;BMP_temperature;BMP_pressure;BME280_temperature;BME280_humidity;BME280_pressure;Samples;Min_cycle;Max_cycle;Signal;HPM_P1;HPM_P2
2022/06/28 00:07:03;;;;;;;1.60;0.43;;;14.80;99.90;;;;;;20638321;28;20383;-81
2022/06/28 00:17:04;;;;;;;1.20;0.40;;;14.80;99.90;;;;;;20646326;28;20042;-81
2022/06/28 00:27:05;;;;;;;1.23;0.30;;;14.80;99.90;;;;;;20628882;28;20038;-81
2022/06/28 00:37:07;;;;;;;2.05;0.40;;;14.70;99.90;;;;;;20623124;28;20127;-82
2022/06/28 00:47:09;;;;;;;3.15;0.35;;;14.60;99.90;;;;;;20649102;28;20038;-81
2022/06/28 00:57:10;;;;;;;1.42;0.50;;;14.40;99.90;;;;;;20656463;28;20610;-81
2022/06/28 01:07:11;;;;;;;1.15;0.30;;;14.30;99.90;;;;;;20642748;28;20038;-82
2022/06/28 01:17:12;;;;;;;1.25;0.30;;;14.30;99.90;;;;;;20644669;28;20050;-82
2022/06/28 01:27:14;;;;;;;1.10;0.32;;;14.10;99.90;;;;;;20618856;28;20678;-81
2022/06/28 01:37:15;;;;;;;1.20;0.50;;;14.10;99.90;;;;;;20618631;28;20148;-82
2022/06/28 01:47:19;;;;;;;0.60;0.20;;;14.00;99.90;;;;;;20603724;28;20045;-82
2022/06/28 01:57:21;;;;;;;1.17;0.38;;;13.90;99.90;;;;;;20615854;28;20046;-81
2022/06/28 02:07:22;;;;;;;0.77;0.35;;;13.90;99.90;;;;;;20606839;28;20074;-82
2022/06/28 02:17:24;;;;;;;0.60;0.20;;;13.80;99.90;;;;;;20630459;28;20065;-82
2022/06/28 02:27:25;;;;;;;1.85;0.30;;;13.80;99.90;;;;;;20635917;28;20038;-82
2022/06/28 02:47:46;;;;;;;0.80;0.30;;;13.60;99.90;;;;;;20646644;28;20590;-82
2022/06/28 02:57:47;;;;;;;1.42;0.43;;;13.60;99.90;;;;;;20642426;28;20045;-82
2022/06/28 03:07:48;;;;;;;1.17;0.22;;;13.40;99.90;;;;;;20626885;28;20042;-82
2022/06/28 03:17:49;;;;;;;1.45;0.25;;;13.40;99.90;;;;;;20633327;28;20045;-82
2022/06/28 03:27:50;;;;;;;0.82;0.25;;;13.40;99.90;;;;;;20607859;28;20049;-82
2022/06/28 03:37:51;;;;;;;0.88;0.28;;;13.40;99.90;;;;;;20619280;28;20131;-82
2022/06/28 03:47:52;;;;;;;7.18;0.65;;;13.30;99.90;;;;;;20641129;28;20049;-81
2022/06/28 03:57:53;;;;;;;1.20;0.30;;;13.40;99.90;;;;;;20608360;28;20706;-82
2022/06/28 04:07:54;;;;;;;0.55;0.20;;;13.30;99.90;;;;;;20640758;28;20429;-82
2022/06/28 04:17:56;;;;;;;3.25;1.38;;;13.40;99.90;;;;;;20632014;28;20058;-83
2022/06/28 04:27:57;;;;;;;1.45;0.52;;;13.40;99.90;;;;;;20671554;28;20084;-82
2022/06/28 04:38:01;;;;;;;0.70;0.20;;;13.50;99.90;;;;;;20657733;28;20137;-81
2022/06/28 04:48:02;;;;;;;2.15;0.35;;;13.50;99.90;;;;;;20679266;28;20396;-81
2022/06/28 04:58:03;;;;;;;2.28;1.48;;;13.70;99.90;;;;;;20670909;28;20397;-81
2022/06/28 05:08:04;;;;;;;2.28;0.57;;;13.90;99.90;;;;;;20627459;28;20046;-82
2022/06/28 05:18:05;;;;;;;3.35;0.52;;;14.10;99.90;;;;;;20634139;28;20041;-81
2022/06/28 05:28:06;;;;;;;0.82;0.30;;;14.30;99.90;;;;;;20613809;28;20030;-81
2022/06/28 05:38:07;;;;;;;2.10;0.57;;;14.60;99.90;;;;;;20613031;28;20517;-82
2022/06/28 05:48:12;;;;;;;2.58;0.95;;;14.70;99.90;;;;;;20611847;28;23653;-81
2022/06/28 05:58:13;;;;;;;3.63;0.63;;;14.90;99.90;;;;;;20649711;28;20038;-81
2022/06/28 06:08:15;;;;;;;4.28;0.80;;;15.30;99.90;;;;;;20634590;28;20204;-81
2022/06/28 06:18:16;;;;;;;3.13;0.73;;;15.50;99.90;;;;;;20639570;28;20042;-81
2022/06/28 06:28:17;;;;;;;3.80;0.80;;;15.70;99.90;;;;;;20628575;28;20609;-81
2022/06/28 06:38:18;;;;;;;3.13;1.08;;;16.00;99.90;;;;;;20640365;28;20054;-81
2022/06/28 06:48:19;;;;;;;3.17;0.90;;;16.20;99.90;;;;;;20636562;28;20046;-80
2022/06/28 06:58:20;;;;;;;6.78;2.22;;;16.40;99.90;;;;;;20664264;28;20037;-81
2022/06/28 07:08:21;;;;;;;4.40;0.98;;;16.70;99.90;;;;;;20670321;28;20041;-81
2022/06/28 07:18:22;;;;;;;2.75;0.95;;;16.80;99.90;;;;;;20655764;28;20092;-80
2022/06/28 07:28:23;;;;;;;4.07;0.82;;;17.00;99.90;;;;;;20669992;28;20089;-81
2022/06/28 07:38:25;;;;;;;3.67;0.70;;;17.10;99.90;;;;;;20640929;28;20042;-81
2022/06/28 07:48:27;;;;;;;1.90;0.70;;;17.10;99.90;;;;;;20654775;28;20818;-80
2022/06/28 07:58:28;;;;;;;2.00;0.60;;;17.20;99.90;;;;;;20668565;28;20064;-80
2022/06/28 08:08:29;;;;;;;3.30;0.80;;;17.40;99.90;;;;;;20644403;28;20038;-79
2022/06/28 08:18:30;;;;;;;8.55;0.90;;;17.60;99.90;;;;;;20665235;28;20137;-81
2022/06/28 08:28:31;;;;;;;1.92;0.60;;;17.70;99.90;;;;;;20663861;28;20068;-83
2022/06/28 08:38:32;;;;;;;1.40;0.65;;;18.10;99.90;;;;;;20670837;28;20065;-82
2022/06/28 08:48:41;;;;;;;1.83;0.80;;;18.20;99.90;;;;;;20651843;28;20181;-81
2022/06/28 08:58:44;;;;;;;2.50;1.02;;;18.30;99.90;;;;;;20659563;28;20050;-81
2022/06/28 09:08:45;;;;;;;1.58;0.82;;;18.60;99.90;;;;;;20643291;28;20041;-80
2022/06/28 09:18:48;;;;;;;1.60;0.50;;;18.80;99.90;;;;;;20632984;28;20046;-81
2022/06/28 09:28:52;;;;;;;1.20;0.40;;;18.90;99.90;;;;;;20659312;28;20045;-80
2022/06/28 09:38:56;;;;;;;0.80;0.38;;;19.00;99.90;;;;;;20687913;28;20054;-79
2022/06/28 09:49:00;;;;;;;1.17;0.50;;;19.30;99.90;;;;;;20628852;28;20042;-80
2022/06/28 09:59:02;;;;;;;1.38;0.60;;;19.40;99.90;;;;;;20620656;28;20716;-80
2022/06/28 10:09:06;;;;;;;1.60;0.63;;;19.60;99.90;;;;;;20622002;28;20050;-80
2022/06/28 10:19:08;;;;;;;0.93;0.38;;;20.00;99.90;;;;;;20635988;28;20037;-80
2022/06/28 10:29:10;;;;;;;1.98;0.52;;;20.30;99.90;;;;;;20631713;28;20566;-80
2022/06/28 10:39:15;;;;;;;0.95;0.50;;;20.50;99.90;;;;;;20635632;28;20800;-82
2022/06/28 10:49:16;;;;;;;1.25;0.55;;;20.80;99.90;;;;;;20634620;28;20089;-79
2022/06/28 10:59:18;;;;;;;1.42;0.47;;;21.30;99.90;;;;;;20626146;28;20996;-80
2022/06/28 11:09:48;;;;;;;2.00;0.98;;;21.30;99.90;;;;;;20652489;28;20049;-80
2022/06/28 11:19:54;;;;;;;1.42;0.65;;;21.60;99.90;;;;;;20627858;28;20042;-79
2022/06/28 11:30:05;;;;;;;0.55;0.22;;;21.70;99.90;;;;;;20633526;28;20049;-79
2022/06/28 11:40:07;;;;;;;4.18;0.40;;;22.00;99.90;;;;;;20636033;28;20053;-79
2022/06/28 11:50:18;;;;;;;0.88;0.30;;;22.20;99.90;;;;;;20623680;28;20050;-79
2022/06/28 12:00:22;;;;;;;1.00;0.20;;;22.50;99.90;;;;;;20644118;28;20042;-79
2022/06/28 12:10:31;;;;;;;1.13;0.40;;;22.70;99.90;;;;;;20654082;28;20525;-79
2022/06/28 12:20:34;;;;;;;0.73;0.28;;;23.00;99.90;;;;;;20649634;28;20046;-79
2022/06/28 12:30:35;;;;;;;0.80;0.30;;;23.20;99.90;;;;;;20619942;28;20085;-78
2022/06/28 12:40:36;;;;;;;2.67;0.47;;;23.50;99.90;;;;;;20656791;28;20054;-81
2022/06/28 12:50:37;;;;;;;1.65;0.80;;;23.60;99.90;;;;;;20633134;28;20054;-80
2022/06/28 13:00:38;;;;;;;0.47;0.28;;;23.80;99.30;;;;;;20612600;28;20037;-78
2022/06/28 13:10:39;;;;;;;1.73;1.05;;;23.80;99.40;;;;;;20622998;28;20042;-79
2022/06/28 13:20:41;;;;;;;0.70;0.20;;;23.90;99.90;;;;;;20600121;28;20713;-79
2022/06/28 13:30:42;;;;;;;1.80;0.25;;;23.90;99.90;;;;;;20608383;28;20046;-79
2022/06/28 13:40:46;;;;;;;0.47;0.20;;;24.10;99.00;;;;;;20626541;28;20049;-79
2022/06/28 13:50:48;;;;;;;0.90;0.30;;;23.90;99.90;;;;;;20608933;28;21399;-79
2022/06/28 14:00:49;;;;;;;1.05;0.35;;;24.00;98.80;;;;;;20617879;28;20046;-79
2022/06/28 14:10:52;;;;;;;1.42;0.85;;;23.80;99.90;;;;;;20653048;28;20039;-79
2022/06/28 14:20:54;;;;;;;3.03;0.50;;;24.20;99.90;;;;;;20618275;28;20039;-81
2022/06/28 14:30:55;;;;;;;1.73;0.30;;;24.20;99.60;;;;;;20644048;28;20932;-79
2022/06/28 14:40:56;;;;;;;0.65;0.45;;;23.70;99.90;;;;;;20644330;28;20054;-79
2022/06/28 14:50:57;;;;;;;1.05;0.40;;;23.90;99.90;;;;;;20640509;28;20488;-78
2022/06/28 15:01:00;;;;;;;1.10;0.40;;;24.20;99.60;;;;;;20659518;28;20486;-78
2022/06/28 15:11:02;;;;;;;0.95;0.50;;;24.00;99.90;;;;;;20622978;28;20536;-79
2022/06/28 15:21:05;;;;;;;1.58;0.40;;;23.90;99.90;;;;;;20621873;28;20038;-79
2022/06/28 15:31:06;;;;;;;1.65;0.30;;;23.90;99.90;;;;;;20633832;28;20514;-79
2022/06/28 15:41:08;;;;;;;0.50;0.30;;;24.00;99.20;;;;;;20634655;28;20088;-79
2022/06/28 15:51:10;;;;;;;0.70;0.28;;;23.70;99.90;;;;;;20646837;28;20814;-78
2022/06/28 16:01:11;;;;;;;1.60;0.60;;;23.80;99.90;;;;;;20639809;28;20044;-79
2022/06/28 16:11:12;;;;;;;2.25;0.52;;;23.80;99.90;;;;;;20672347;28;20079;-80
2022/06/28 16:21:13;;;;;;;0.68;0.30;;;23.50;99.60;;;;;;20653045;28;20042;-79
2022/06/28 16:31:14;;;;;;;0.17;0.13;;;23.50;99.50;;;;;;20673435;28;20054;-79
2022/06/28 16:41:15;;;;;;;0.70;0.30;;;23.40;99.90;;;;;;20688031;28;20091;-80
2022/06/28 16:51:17;;;;;;;0.95;0.40;;;23.40;99.20;;;;;;20656346;28;20394;-79
2022/06/28 17:01:18;;;;;;;1.00;0.20;;;23.40;99.90;;;;;;20650580;28;20047;-79
2022/06/28 17:11:19;;;;;;;0.73;0.30;;;23.50;99.90;;;;;;20652093;28;20046;-84
2022/06/28 17:21:20;;;;;;;0.77;0.35;;;23.20;99.90;;;;;;20658341;28;20045;-83
2022/06/28 17:31:21;;;;;;;2.45;1.60;;;22.90;99.90;;;;;;20634395;28;20042;-82
2022/06/28 17:41:22;;;;;;;1.08;0.20;;;22.80;99.90;;;;;;20615130;28;20069;-80
2022/06/28 17:51:23;;;;;;;1.02;0.20;;;22.90;99.90;;;;;;20631561;28;20052;-79
2022/06/28 18:01:24;;;;;;;0.90;0.32;;;23.00;99.90;;;;;;20602161;28;20048;-81
2022/06/28 18:11:25;;;;;;;0.60;0.20;;;23.00;99.90;;;;;;20615334;28;20298;-79
2022/06/28 18:21:26;;;;;;;0.75;0.10;;;22.80;99.90;;;;;;20645730;28;20045;-79
2022/06/28 18:31:27;;;;;;;1.00;0.30;;;22.70;99.90;;;;;;20618627;28;20039;-78
2022/06/28 18:41:28;;;;;;;0.50;0.20;;;22.60;99.90;;;;;;20610215;28;20046;-79
2022/06/28 18:51:30;;;;;;;1.50;0.40;;;22.40;99.90;;;;;;20620366;28;20127;-79
2022/06/28 19:01:31;;;;;;;0.70;0.30;;;22.30;99.90;;;;;;20661952;28;20038;-79
2022/06/28 19:11:33;;;;;;;0.77;0.38;;;22.30;99.90;;;;;;20660533;28;20133;-78
2022/06/28 19:21:34;;;;;;;0.95;0.43;;;22.20;99.90;;;;;;20642416;28;20502;-79
2022/06/28 19:31:36;;;;;;;0.80;0.20;;;22.00;99.90;;;;;;20663078;28;20057;-78
2022/06/28 19:41:37;;;;;;;2.50;0.60;;;21.80;99.90;;;;;;20665380;28;20057;-79
2022/06/28 19:51:38;;;;;;;0.30;0.20;;;21.60;99.90;;;;;;20658922;28;20042;-79
2022/06/28 20:01:39;;;;;;;1.60;0.38;;;21.30;99.90;;;;;;20658034;28;20041;-78
2022/06/28 20:11:40;;;;;;;0.80;0.20;;;21.10;99.90;;;;;;20662072;28;20046;-79
2022/06/28 20:21:42;;;;;;;4.80;0.32;;;20.90;99.90;;;;;;20649923;28;20042;-78
2022/06/28 20:31:43;;;;;;;0.52;0.13;;;20.70;99.90;;;;;;20631444;28;20042;-79
2022/06/28 20:52:05;;;;;;;1.52;0.35;;;20.00;99.90;;;;;;20654645;28;21096;-79
2022/06/28 21:02:07;;;;;;;0.73;0.30;;;19.80;99.90;;;;;;20655663;28;20321;-80
2022/06/28 21:12:09;;;;;;;0.98;0.40;;;19.60;99.90;;;;;;20663597;28;20042;-80
2022/06/28 21:22:10;;;;;;;0.88;0.30;;;19.50;99.90;;;;;;20666390;28;21179;-81
2022/06/28 21:32:11;;;;;;;1.13;0.60;;;19.30;99.90;;;;;;20618974;28;20045;-81
2022/06/28 21:42:12;;;;;;;1.10;0.30;;;19.20;99.90;;;;;;20608430;28;20046;-81
2022/06/28 21:52:13;;;;;;;0.88;0.50;;;18.90;99.90;;;;;;20635939;28;20172;-81
2022/06/28 22:02:14;;;;;;;1.85;0.60;;;18.80;99.90;;;;;;20644224;28;20057;-80
2022/06/28 22:12:15;;;;;;;1.88;0.55;;;18.70;99.90;;;;;;20645716;28;20410;-81
2022/06/28 22:22:16;;;;;;;1.63;0.45;;;18.70;99.90;;;;;;20611435;28;20042;-81
2022/06/28 22:32:17;;;;;;;1.23;0.40;;;18.60;99.90;;;;;;20664598;28;20824;-81
2022/06/28 22:42:18;;;;;;;1.40;0.60;;;18.50;99.90;;;;;;20671547;28;20038;-80
2022/06/28 22:52:19;;;;;;;1.40;0.63;;;18.40;99.90;;;;;;20678086;28;20054;-81
2022/06/28 23:02:23;;;;;;;2.55;0.70;;;18.30;99.90;;;;;;20664282;28;20085;-81
2022/06/28 23:12:24;;;;;;;1.10;0.40;;;18.30;99.90;;;;;;20660839;28;20049;-81
2022/06/28 23:22:25;;;;;;;1.42;0.60;;;18.20;99.90;;;;;;20636092;28;20042;-81
2022/06/28 23:32:27;;;;;;;1.80;0.55;;;18.20;99.90;;;;;;20655506;28;20077;-81
2022/06/28 23:42:29;;;;;;;1.60;0.63;;;18.00;99.90;;;;;;20637296;28;20137;-81
2022/06/28 23:52:30;;;;;;;1.08;0.50;;;18.00;99.90;;;;;;20648467;28;20054;-81
